createdAt,value
2018-06-14T00:01:39.382Z,5.40
2018-06-14T00:04:07.305Z,5.23
2018-06-14T00:06:35.233Z,5.70
2018-06-14T00:09:05.173Z,5.40
2018-06-14T00:11:33.014Z,5.40
2018-06-14T00:14:00.905Z,6.00
2018-06-14T00:16:28.768Z,5.77
2018-06-14T00:18:56.667Z,6.03
2018-06-14T00:21:24.559Z,6.33
2018-06-14T00:23:52.397Z,6.33
2018-06-14T00:26:20.221Z,5.60
2018-06-14T00:28:48.072Z,6.47
2018-06-14T00:31:15.946Z,6.27
2018-06-14T00:33:43.765Z,6.17
2018-06-14T00:36:11.688Z,6.10
2018-06-14T00:38:39.578Z,5.43
2018-06-14T00:41:07.505Z,5.90
2018-06-14T00:43:35.469Z,6.10
2018-06-14T00:46:03.385Z,6.50
2018-06-14T00:48:31.246Z,5.90
2018-06-14T00:50:59.113Z,5.80
2018-06-14T00:53:26.988Z,6.20
2018-06-14T00:55:54.873Z,5.73
2018-06-14T00:58:22.673Z,5.77
2018-06-14T01:00:50.546Z,6.23
2018-06-14T01:03:18.453Z,5.63
2018-06-14T01:05:46.365Z,6.00
2018-06-14T01:08:14.314Z,5.73
2018-06-14T01:10:42.249Z,5.90
2018-06-14T01:13:10.157Z,5.60
2018-06-14T01:15:38.073Z,6.17
2018-06-14T01:18:06.031Z,5.80
2018-06-14T01:20:34.048Z,5.50
2018-06-14T01:23:01.912Z,5.93
2018-06-14T01:25:29.821Z,6.47
2018-06-14T01:27:57.673Z,6.80
2018-06-14T01:30:25.501Z,6.80
2018-06-14T01:32:53.357Z,6.07
2018-06-14T01:35:21.233Z,6.13
2018-06-14T01:38:06.241Z,6.63
2018-06-14T01:40:34.092Z,6.57
2018-06-14T01:43:01.986Z,7.10
2018-06-14T01:45:29.778Z,6.80
2018-06-14T01:47:57.682Z,6.50
2018-06-14T01:50:25.544Z,7.30
2018-06-14T01:52:53.473Z,7.10
2018-06-14T01:55:21.369Z,6.50
2018-06-14T01:57:49.185Z,7.47
2018-06-14T02:00:17.042Z,7.53
2018-06-14T02:02:44.901Z,6.63
2018-06-14T02:05:12.733Z,7.17
2018-06-14T02:07:40.637Z,7.40
2018-06-14T02:10:08.625Z,8.60
2018-06-14T02:12:36.566Z,7.70
2018-06-14T02:15:04.636Z,7.30
2018-06-14T02:17:32.485Z,6.87
2018-06-14T02:20:00.262Z,7.57
2018-06-14T02:22:28.098Z,7.30
2018-06-14T02:24:56.025Z,7.37
2018-06-14T02:27:23.896Z,7.30
2018-06-14T02:29:51.755Z,7.50
2018-06-14T02:32:19.741Z,7.30
2018-06-14T02:34:47.657Z,7.80
2018-06-14T02:37:15.601Z,7.67
2018-06-14T02:39:43.525Z,7.07
2018-06-14T02:42:11.422Z,6.27
2018-06-14T02:44:39.308Z,6.53
2018-06-14T02:47:07.184Z,6.30
2018-06-14T02:49:35.069Z,6.80
2018-06-14T02:52:03.028Z,6.47
2018-06-14T02:54:30.994Z,6.70
2018-06-14T02:56:58.859Z,5.50
2018-06-14T02:59:26.694Z,5.90
2018-06-14T03:01:54.569Z,6.83
2018-06-14T03:04:22.484Z,5.90
2018-06-14T03:06:50.345Z,5.63
2018-06-14T03:09:18.219Z,6.27
2018-06-14T03:11:46.102Z,5.80
2018-06-14T03:14:14.253Z,6.07
2018-06-14T03:16:42.240Z,6.57
2018-06-14T03:19:10.134Z,7.53
2018-06-14T03:21:38.124Z,6.40
2018-06-14T03:24:06.083Z,6.60
2018-06-14T03:26:33.921Z,6.97
2018-06-14T03:29:03.614Z,7.50
2018-06-14T03:31:32.523Z,6.93
2018-06-14T03:34:00.469Z,7.20
2018-06-14T03:36:29.849Z,7.00
2018-06-14T03:38:57.761Z,7.17
2018-06-14T03:41:25.705Z,7.50
2018-06-14T03:43:53.554Z,8.10
2018-06-14T03:46:21.518Z,7.60
2018-06-14T03:48:49.388Z,7.10
2018-06-14T03:51:17.271Z,8.13
2018-06-14T03:53:45.073Z,8.50
2018-06-14T03:56:12.978Z,8.53
2018-06-14T03:58:40.817Z,7.63
2018-06-14T04:01:08.733Z,7.43
2018-06-14T04:03:36.606Z,7.60
2018-06-14T04:06:04.562Z,7.50
2018-06-14T04:08:32.391Z,7.90
2018-06-14T04:11:00.309Z,6.70
2018-06-14T04:13:28.229Z,7.47
2018-06-14T04:15:56.933Z,6.43
2018-06-14T04:18:24.776Z,7.00
2018-06-14T04:20:52.621Z,6.73
2018-06-14T04:23:20.485Z,7.67
2018-06-14T04:25:48.354Z,7.70
2018-06-14T04:28:16.276Z,7.30
2018-06-14T04:30:44.161Z,7.67
2018-06-14T04:33:12.241Z,7.30
2018-06-14T04:35:40.169Z,6.97
2018-06-14T04:38:08.132Z,7.00
2018-06-14T04:40:36.085Z,9.03
2018-06-14T04:43:04.189Z,7.10
2018-06-14T04:45:32.054Z,6.90
2018-06-14T04:48:00.699Z,7.30
2018-06-14T04:50:28.688Z,6.67
2018-06-14T04:52:56.640Z,7.70
2018-06-14T04:55:24.499Z,7.27
2018-06-14T04:57:52.426Z,7.17
2018-06-14T05:00:20.253Z,6.60
2018-06-14T05:02:48.120Z,6.30
2018-06-14T05:05:16.065Z,6.90
2018-06-14T05:07:43.921Z,6.63
2018-06-14T05:10:11.773Z,6.53
2018-06-14T05:12:41.034Z,7.03
2018-06-14T05:15:08.909Z,6.80
2018-06-14T05:17:36.816Z,6.23
2018-06-14T05:20:04.649Z,5.60
2018-06-14T05:22:32.577Z,5.50
2018-06-14T05:25:00.472Z,5.33
2018-06-14T05:27:28.961Z,5.17
2018-06-14T05:29:58.342Z,5.30
2018-06-14T05:32:26.304Z,5.40
2018-06-14T05:34:54.226Z,5.27
2018-06-14T05:37:22.097Z,5.07
2018-06-14T05:39:50.060Z,5.73
2018-06-14T05:42:18.263Z,5.57
2018-06-14T05:44:46.310Z,5.50
2018-06-14T05:47:14.698Z,5.67
2018-06-14T05:49:42.936Z,5.57
2018-06-14T05:52:10.773Z,6.07
2018-06-14T05:54:39.111Z,6.50
2018-06-14T05:57:09.971Z,6.47
2018-06-14T05:59:38.832Z,6.03
2018-06-14T06:02:06.800Z,6.47
2018-06-14T06:04:34.777Z,7.23
2018-06-14T06:07:02.720Z,6.97
2018-06-14T06:09:30.561Z,7.20
2018-06-14T06:11:58.546Z,6.33
2018-06-14T06:14:26.460Z,6.67
2018-06-14T06:16:58.860Z,6.27
2018-06-14T06:19:26.845Z,6.37
2018-06-14T06:21:54.745Z,7.00
2018-06-14T06:24:22.686Z,6.97
2018-06-14T06:26:50.503Z,6.17
2018-06-14T06:29:18.998Z,6.50
2018-06-14T06:31:46.841Z,6.50
2018-06-14T06:34:14.734Z,6.70
2018-06-14T06:36:42.660Z,6.70
2018-06-14T06:39:12.349Z,6.80
2018-06-14T06:41:40.460Z,6.73
2018-06-14T06:44:10.415Z,6.63
2018-06-14T06:46:38.460Z,6.90
2018-06-14T06:49:06.385Z,6.93
2018-06-14T06:51:34.809Z,7.00
2018-06-14T06:54:03.145Z,6.90
2018-06-14T06:56:31.466Z,7.30
2018-06-14T06:58:59.401Z,6.27
2018-06-14T07:01:27.221Z,7.47
2018-06-14T07:03:55.168Z,6.77
2018-06-14T07:06:23.049Z,7.33
2018-06-14T07:08:50.941Z,8.40
2018-06-14T07:11:18.911Z,7.17
2018-06-14T07:13:46.774Z,7.87
2018-06-14T07:16:14.718Z,6.80
2018-06-14T07:18:42.582Z,6.63
2018-06-14T07:21:10.617Z,8.60
2018-06-14T07:23:38.464Z,8.10
2018-06-14T07:26:06.381Z,7.53
2018-06-14T07:28:34.237Z,7.47
2018-06-14T07:31:02.024Z,8.10
2018-06-14T07:33:30.065Z,8.90
2018-06-14T07:35:57.889Z,9.13
2018-06-14T07:38:25.878Z,8.10
2018-06-14T07:40:55.061Z,9.13
2018-06-14T07:43:22.917Z,8.63
2018-06-14T07:45:51.463Z,8.20
2018-06-14T07:48:19.396Z,8.27
2018-06-14T07:50:47.237Z,9.47
2018-06-14T07:53:15.085Z,8.50
2018-06-14T07:55:44.218Z,9.40
2018-06-14T07:58:12.083Z,7.43
2018-06-14T08:00:39.987Z,8.40
2018-06-14T08:03:11.043Z,7.03
2018-06-14T08:05:39.017Z,7.87
2018-06-14T08:08:06.858Z,7.90
2018-06-14T08:10:34.740Z,7.23
2018-06-14T08:13:02.730Z,6.87
2018-06-14T08:15:30.578Z,8.10
2018-06-14T08:17:58.513Z,7.20
2018-06-14T08:20:26.589Z,6.97
2018-06-14T08:22:54.394Z,7.27
2018-06-14T08:25:22.288Z,7.97
2018-06-14T08:27:50.190Z,8.40
2018-06-14T08:30:18.057Z,7.90
2018-06-14T08:32:45.881Z,6.73
2018-06-14T08:35:13.817Z,6.93
2018-06-14T08:37:41.689Z,6.73
2018-06-14T08:40:09.616Z,7.87
2018-06-14T08:42:37.437Z,7.47
2018-06-14T08:45:05.346Z,6.80
2018-06-14T08:47:33.268Z,6.60
2018-06-14T08:50:01.141Z,7.10
2018-06-14T08:52:28.945Z,6.57
2018-06-14T08:54:56.762Z,6.70
2018-06-14T08:57:24.669Z,6.93
2018-06-14T08:59:52.589Z,6.03
2018-06-14T09:02:20.530Z,5.90
2018-06-14T09:04:48.350Z,6.83
2018-06-14T09:07:16.175Z,6.57
2018-06-14T09:09:44.065Z,6.87
2018-06-14T09:12:11.999Z,6.10
2018-06-14T09:14:39.853Z,6.20
2018-06-14T09:17:07.705Z,6.17
2018-06-14T09:19:35.672Z,5.23
2018-06-14T09:22:03.580Z,5.90
2018-06-14T09:24:31.445Z,4.87
2018-06-14T09:26:59.316Z,5.20
2018-06-14T09:29:27.193Z,5.07
2018-06-14T09:31:55.041Z,5.03
2018-06-14T09:34:22.933Z,5.50
2018-06-14T09:36:50.805Z,5.97
2018-06-14T09:39:18.665Z,4.73
2018-06-14T09:41:46.548Z,5.50
2018-06-14T09:44:14.461Z,5.07
2018-06-14T09:46:46.173Z,4.93
2018-06-14T09:49:15.092Z,5.40
2018-06-14T09:51:44.042Z,5.63
2018-06-14T09:54:11.974Z,5.87
2018-06-14T09:56:39.901Z,5.87
2018-06-14T09:59:08.044Z,6.17
2018-06-14T10:01:35.984Z,5.60
2018-06-14T10:04:04.142Z,5.90
2018-06-14T10:06:32.007Z,5.33
2018-06-14T10:08:59.934Z,5.77
2018-06-14T10:11:27.782Z,5.10
2018-06-14T10:13:55.689Z,5.30
2018-06-14T10:16:23.765Z,5.37
2018-06-14T10:18:52.405Z,4.83
2018-06-14T10:21:20.249Z,5.00
2018-06-14T10:23:48.141Z,4.80
2018-06-14T10:26:16.082Z,4.57
2018-06-14T10:28:43.896Z,5.13
2018-06-14T10:31:11.744Z,5.63
2018-06-14T10:33:39.597Z,5.37
2018-06-14T10:36:07.486Z,5.10
2018-06-14T10:38:35.333Z,5.77
2018-06-14T10:41:03.255Z,5.47
2018-06-14T10:43:31.241Z,5.73
2018-06-14T10:45:59.122Z,4.83
2018-06-14T10:48:27.013Z,5.40
2018-06-14T10:50:55.389Z,5.40
2018-06-14T10:53:23.334Z,4.60
2018-06-14T10:55:51.221Z,5.30
2018-06-14T10:58:19.057Z,4.50
2018-06-14T11:00:47.357Z,4.80
2018-06-14T11:03:15.201Z,4.67
2018-06-14T11:05:43.080Z,4.70
2018-06-14T11:08:10.936Z,4.77
2018-06-14T11:10:38.716Z,6.07
2018-06-14T11:13:06.647Z,4.40
2018-06-14T11:15:34.536Z,4.63
2018-06-14T11:18:02.453Z,5.03
2018-06-14T11:20:30.289Z,4.60
2018-06-14T11:22:58.109Z,4.13
2018-06-14T11:25:25.969Z,4.47
2018-06-14T11:27:53.933Z,4.60
2018-06-14T11:30:22.023Z,3.77
2018-06-14T11:32:49.865Z,3.97
2018-06-14T11:35:17.820Z,4.40
2018-06-14T11:37:45.672Z,4.23
2018-06-14T11:40:13.541Z,4.93
2018-06-14T11:42:41.416Z,4.67
2018-06-14T11:45:09.300Z,5.17
2018-06-14T11:47:37.127Z,4.80
2018-06-14T11:50:05.020Z,4.63
2018-06-14T11:52:32.916Z,4.40
2018-06-14T11:55:00.730Z,3.73
2018-06-14T11:57:28.537Z,3.83
2018-06-14T11:59:56.516Z,4.13
2018-06-14T12:02:24.389Z,4.50
2018-06-14T12:04:52.440Z,3.80
2018-06-14T12:07:20.292Z,4.53
2018-06-14T12:09:48.160Z,5.23
2018-06-14T12:12:16.495Z,4.60
2018-06-14T12:14:44.394Z,4.40
2018-06-14T12:17:12.305Z,4.80
2018-06-14T12:19:40.281Z,4.40
2018-06-14T12:22:08.165Z,4.00
2018-06-14T12:24:36.042Z,4.47
2018-06-14T12:27:04.381Z,4.20
2018-06-14T12:29:32.233Z,4.73
2018-06-14T12:32:00.099Z,5.07
2018-06-14T12:34:28.019Z,4.57
2018-06-14T12:36:55.965Z,4.20
2018-06-14T12:39:23.826Z,4.37
2018-06-14T12:41:51.701Z,4.67
2018-06-14T12:44:19.564Z,5.13
2018-06-14T12:46:47.529Z,4.70
2018-06-14T12:49:15.505Z,4.83
2018-06-14T12:51:43.336Z,4.60
2018-06-14T12:54:11.202Z,3.83
2018-06-14T12:56:39.069Z,4.80
2018-06-14T12:59:06.952Z,4.50
2018-06-14T13:01:34.817Z,4.57
2018-06-14T13:04:02.760Z,4.40
2018-06-14T13:06:30.577Z,5.10
2018-06-14T13:08:58.486Z,4.80
2018-06-14T13:11:26.301Z,5.33
2018-06-14T13:13:54.157Z,4.20
2018-06-14T13:16:22.145Z,4.53
2018-06-14T13:18:49.998Z,4.40
2018-06-14T13:21:17.857Z,4.10
2018-06-14T13:23:45.861Z,4.03
2018-06-14T13:26:13.794Z,4.20
2018-06-14T13:28:41.661Z,3.90
2018-06-14T13:31:09.731Z,5.13
2018-06-14T13:33:37.642Z,4.90
2018-06-14T13:36:06.184Z,6.10
2018-06-14T13:38:34.058Z,4.70
2018-06-14T13:41:02.024Z,5.60
2018-06-14T13:43:29.921Z,4.90
2018-06-14T13:46:00.335Z,5.07
2018-06-14T13:48:31.349Z,5.00
2018-06-14T13:50:59.517Z,6.07
2018-06-14T13:53:27.498Z,4.53
2018-06-14T13:55:55.361Z,4.83
2018-06-14T13:58:27.839Z,5.27
2018-06-14T14:00:55.817Z,6.03
2018-06-14T14:03:23.680Z,5.70
2018-06-14T14:05:53.753Z,6.77
2018-06-14T14:08:21.838Z,6.50
2018-06-14T14:10:50.034Z,7.03
2018-06-14T14:13:17.877Z,6.10
2018-06-14T14:15:45.877Z,5.90
2018-06-14T14:18:14.741Z,5.83
2018-06-14T14:20:48.722Z,5.70
2018-06-14T14:23:17.126Z,6.10
2018-06-14T14:25:45.012Z,5.53
2018-06-14T14:28:12.874Z,6.07
2018-06-14T14:30:40.733Z,6.17
2018-06-14T14:33:08.653Z,5.57
2018-06-14T14:35:38.474Z,5.23
2018-06-14T14:38:06.441Z,5.50
2018-06-14T14:40:34.344Z,4.83
2018-06-14T14:43:02.206Z,4.07
2018-06-14T14:45:30.161Z,4.47
2018-06-14T14:47:58.448Z,4.57
2018-06-14T14:50:26.714Z,5.90
2018-06-14T14:52:54.659Z,4.60
2018-06-14T14:55:22.525Z,4.80
2018-06-14T14:57:50.733Z,3.77
2018-06-14T15:00:18.657Z,5.73
2018-06-14T15:02:47.725Z,5.93
2018-06-14T15:05:15.645Z,5.47
2018-06-14T15:07:43.575Z,5.57
2018-06-14T15:10:13.181Z,5.40
2018-06-14T15:12:43.919Z,4.13
2018-06-14T15:15:11.802Z,5.00
2018-06-14T15:17:40.154Z,5.37
2018-06-14T15:20:08.180Z,4.43
2018-06-14T15:22:36.074Z,4.80
2018-06-14T15:25:09.451Z,4.57
2018-06-14T15:27:37.572Z,6.23
2018-06-14T15:30:05.399Z,4.80
2018-06-14T15:32:33.274Z,4.67
2018-06-14T15:35:01.179Z,5.50
2018-06-14T15:37:28.985Z,4.73
2018-06-14T15:39:56.880Z,5.23
2018-06-14T15:42:28.624Z,4.20
2018-06-14T15:44:56.834Z,5.30
2018-06-14T15:47:24.738Z,4.47
2018-06-14T15:49:52.681Z,5.27
2018-06-14T15:52:20.569Z,5.00
2018-06-14T15:55:05.885Z,4.80
2018-06-14T15:57:33.800Z,4.70
2018-06-14T16:00:01.617Z,4.43
2018-06-14T16:02:29.516Z,4.87
2018-06-14T16:04:57.458Z,5.20
2018-06-14T16:07:25.236Z,4.40
2018-06-14T16:09:53.075Z,5.30
2018-06-14T16:12:21.135Z,4.90
2018-06-14T16:14:48.988Z,4.80
2018-06-14T16:17:16.885Z,4.33
2018-06-14T16:19:44.725Z,4.83
2018-06-14T16:22:12.544Z,5.17
2018-06-14T16:24:40.641Z,4.43
2018-06-14T16:27:08.598Z,4.87
2018-06-14T16:29:36.505Z,4.67
2018-06-14T16:32:04.448Z,4.27
2018-06-14T16:34:32.346Z,4.97
2018-06-14T16:37:00.224Z,4.90
2018-06-14T16:39:28.086Z,5.07
2018-06-14T16:41:55.927Z,4.73
2018-06-14T16:44:23.901Z,4.70
2018-06-14T16:46:51.801Z,4.67
2018-06-14T16:49:19.565Z,4.63
2018-06-14T16:51:47.532Z,4.63
2018-06-14T16:54:15.372Z,4.90
2018-06-14T16:56:43.306Z,4.80
2018-06-14T16:59:11.198Z,4.90
2018-06-14T17:01:39.044Z,4.50
2018-06-14T17:04:06.880Z,4.43
2018-06-14T17:06:35.320Z,4.53
2018-06-14T17:09:04.833Z,3.90
2018-06-14T17:11:32.689Z,5.00
2018-06-14T17:14:00.626Z,4.43
2018-06-14T17:16:28.569Z,4.93
2018-06-14T17:18:56.421Z,5.67
2018-06-14T17:21:24.285Z,5.20
2018-06-14T17:23:52.141Z,4.40
2018-06-14T17:26:20.034Z,5.20
2018-06-14T17:28:47.942Z,5.10
2018-06-14T17:31:16.365Z,5.30
2018-06-14T17:33:44.321Z,4.80
2018-06-14T17:36:12.320Z,4.47
2018-06-14T17:38:40.092Z,5.33
2018-06-14T17:41:08.060Z,4.93
2018-06-14T17:43:35.929Z,4.40
2018-06-14T17:46:04.163Z,5.63
2018-06-14T17:48:32.081Z,5.70
2018-06-14T17:50:59.946Z,5.17
2018-06-14T17:53:27.900Z,4.83
2018-06-14T17:55:55.829Z,4.57
2018-06-14T17:58:28.725Z,4.70
2018-06-14T18:00:56.718Z,4.57
2018-06-14T18:03:24.644Z,4.77
2018-06-14T18:05:52.501Z,4.67
2018-06-14T18:08:20.377Z,4.60
2018-06-14T18:10:48.325Z,4.97
2018-06-14T18:13:16.221Z,4.57
2018-06-14T18:15:44.045Z,4.70
2018-06-14T18:18:11.981Z,4.23
2018-06-14T18:20:39.863Z,4.40
2018-06-14T18:23:07.786Z,4.63
2018-06-14T18:25:35.664Z,4.60
2018-06-14T18:28:03.511Z,4.30
2018-06-14T18:30:31.385Z,4.70
2018-06-14T18:32:59.244Z,4.53
2018-06-14T18:35:27.156Z,4.63
2018-06-14T18:37:54.958Z,4.90
2018-06-14T18:40:22.849Z,4.63
2018-06-14T18:42:50.650Z,4.80
2018-06-14T18:45:18.553Z,4.60
2018-06-14T18:47:46.544Z,4.73
2018-06-14T18:50:17.806Z,4.93
2018-06-14T18:52:45.868Z,4.17
2018-06-14T18:55:13.721Z,4.43
2018-06-14T18:57:41.606Z,4.30
2018-06-14T19:00:09.500Z,4.43
2018-06-14T19:02:37.443Z,5.57
2018-06-14T19:05:05.406Z,4.77
2018-06-14T19:07:33.390Z,5.00
2018-06-14T19:10:01.237Z,5.20
2018-06-14T19:12:29.197Z,4.87
2018-06-14T19:14:57.156Z,4.47
2018-06-14T19:17:25.092Z,5.25
2018-06-14T19:19:52.913Z,5.20
2018-06-14T19:22:20.761Z,4.90
2018-06-14T19:24:48.726Z,6.30
2018-06-14T19:27:16.671Z,4.70
2018-06-14T19:29:44.592Z,5.67
2018-06-14T19:32:12.525Z,6.27
2018-06-14T19:34:40.365Z,5.93
2018-06-14T19:37:08.254Z,7.07
2018-06-14T19:39:36.176Z,6.47
2018-06-14T19:42:04.169Z,7.10
2018-06-14T19:44:32.028Z,6.57
2018-06-14T19:46:59.989Z,6.03
2018-06-14T19:49:27.829Z,6.33
2018-06-14T19:51:56.309Z,6.17
2018-06-14T19:54:25.125Z,6.67
2018-06-14T19:56:55.222Z,6.03
2018-06-14T19:59:23.184Z,6.73
2018-06-14T20:01:51.228Z,6.33
2018-06-14T20:04:19.530Z,6.43
2018-06-14T20:06:47.437Z,5.73
2018-06-14T20:09:15.397Z,5.87
2018-06-14T20:11:43.372Z,5.90
2018-06-14T20:14:11.353Z,5.07
2018-06-14T20:16:44.769Z,5.67
2018-06-14T20:19:12.824Z,5.13
2018-06-14T20:21:40.654Z,5.63
2018-06-14T20:24:10.036Z,5.40
2018-06-14T20:26:37.914Z,5.47
2018-06-14T20:29:05.885Z,5.97
2018-06-14T20:31:34.284Z,5.73
2018-06-14T20:34:02.156Z,4.67
2018-06-14T20:36:30.077Z,5.27
2018-06-14T20:38:58.280Z,5.50
2018-06-14T20:41:26.552Z,5.97
2018-06-14T20:43:54.525Z,5.07
2018-06-14T20:46:22.563Z,6.07
2018-06-14T20:48:50.610Z,6.13
2018-06-14T20:51:18.590Z,5.93
2018-06-14T20:53:46.505Z,5.73
2018-06-14T20:56:14.380Z,5.40
2018-06-14T20:58:42.314Z,5.53
2018-06-14T21:01:10.165Z,6.13
2018-06-14T21:03:38.024Z,4.80
2018-06-14T21:06:05.932Z,4.67
2018-06-14T21:08:33.793Z,4.60
2018-06-14T21:11:01.684Z,4.10
2018-06-14T21:13:29.590Z,3.83
2018-06-14T21:15:57.525Z,3.73
2018-06-14T21:18:25.504Z,3.40
2018-06-14T21:20:53.522Z,3.60
2018-06-14T21:23:21.292Z,4.20
2018-06-14T21:25:49.100Z,3.70
2018-06-14T21:28:16.988Z,4.13
2018-06-14T21:30:44.844Z,4.47
2018-06-14T21:33:12.653Z,4.13
2018-06-14T21:35:40.488Z,4.17
2018-06-14T21:38:08.361Z,4.87
2018-06-14T21:40:36.297Z,3.90
2018-06-14T21:43:04.441Z,3.97
2018-06-14T21:45:32.320Z,4.30
2018-06-14T21:48:00.364Z,5.33
2018-06-14T21:50:28.206Z,5.00
2018-06-14T21:52:56.041Z,6.07
2018-06-14T21:55:24.150Z,5.43
2018-06-14T21:57:52.020Z,4.63
2018-06-14T22:00:22.347Z,5.83
2018-06-14T22:02:55.980Z,5.10
2018-06-14T22:05:24.034Z,6.70
2018-06-14T22:07:52.237Z,5.80
2018-06-14T22:10:20.121Z,5.43
2018-06-14T22:12:47.998Z,6.40
2018-06-14T22:15:15.924Z,5.20
2018-06-14T22:17:43.878Z,5.63
2018-06-14T22:20:11.694Z,6.27
2018-06-14T22:22:39.696Z,6.67
2018-06-14T22:25:07.607Z,6.10
2018-06-14T22:27:35.489Z,7.13
2018-06-14T22:30:04.908Z,6.83
2018-06-14T22:32:33.070Z,5.90
2018-06-14T22:35:25.844Z,6.80
2018-06-14T22:37:54.595Z,7.07
2018-06-14T22:40:22.609Z,6.47
2018-06-14T22:42:50.514Z,6.03
2018-06-14T22:45:18.353Z,6.10
2018-06-14T22:47:46.340Z,7.23
2018-06-14T22:50:14.228Z,6.90
2018-06-14T22:53:13.293Z,6.73
2018-06-14T22:55:41.209Z,6.70
2018-06-14T22:58:09.113Z,6.90
2018-06-14T23:01:59.369Z,7.07
2018-06-14T23:04:28.129Z,5.93
2018-06-14T23:06:56.533Z,7.47
2018-06-14T23:10:44.076Z,7.03
2018-06-14T23:13:14.018Z,6.80
2018-06-14T23:15:41.999Z,5.43
2018-06-14T23:18:09.879Z,7.27
2018-06-14T23:20:37.956Z,7.33
2018-06-14T23:23:06.456Z,7.47
2018-06-14T23:25:36.013Z,7.80
2018-06-14T23:28:04.030Z,7.77
2018-06-14T23:30:31.948Z,5.43
2018-06-14T23:33:02.048Z,5.57
2018-06-14T23:35:30.245Z,7.40
2018-06-14T23:37:58.220Z,6.97
2018-06-14T23:40:26.117Z,7.53
2018-06-14T23:42:54.023Z,8.13
2018-06-14T23:45:21.913Z,7.17
2018-06-14T23:47:49.781Z,8.23
2018-06-14T23:50:17.692Z,7.23
2018-06-14T23:52:45.618Z,6.67
2018-06-14T23:55:13.558Z,7.13
2018-06-14T23:57:41.453Z,7.77
